createdAt,value
2023-04-25T00:00:40.675Z,100306.75
2023-04-25T00:01:42.249Z,100312.34
2023-04-25T00:02:43.910Z,100309.75
2023-04-25T00:03:46.856Z,100311.47
2023-04-25T00:04:50.495Z,100305.19
2023-04-25T00:05:52.826Z,100312.59
2023-04-25T00:06:58.418Z,100308.13
2023-04-25T00:07:59.928Z,100310.88
2023-04-25T00:09:01.412Z,100317.28
2023-04-25T00:10:03.557Z,100302.56
2023-04-25T00:11:05.519Z,100304.34
2023-04-25T00:12:07.304Z,100308.97
2023-04-25T00:13:09.117Z,100309.16
2023-04-25T00:14:10.921Z,100305.59
2023-04-25T00:15:12.898Z,100305.59
2023-04-25T00:16:16.473Z,100303.94
2023-04-25T00:17:17.952Z,100305.53
2023-04-25T00:18:20.367Z,100304.63
2023-04-25T00:19:21.813Z,100302.88
2023-04-25T00:20:24.405Z,100306.25
2023-04-25T00:21:26.468Z,100304.59
2023-04-25T00:22:27.902Z,100299.19
2023-04-25T00:23:29.330Z,100307.28
2023-04-25T00:24:30.750Z,100295.63
2023-04-25T00:25:32.193Z,100301.91
2023-04-25T00:26:34.890Z,100305.53
2023-04-25T00:27:36.348Z,100302.97
2023-04-25T00:28:38.421Z,100293.94
2023-04-25T00:29:39.778Z,100299.19
2023-04-25T00:30:41.959Z,100301.97
2023-04-25T00:31:43.455Z,100309.19
2023-04-25T00:32:44.976Z,100313.88
2023-04-25T00:33:46.405Z,100307.47
2023-04-25T00:34:47.845Z,100310.19
2023-04-25T00:35:49.272Z,100303.81
2023-04-25T00:36:50.834Z,100311.03
2023-04-25T00:37:52.223Z,100309.97
2023-04-25T00:38:55.822Z,100300.88
2023-04-25T00:39:59.437Z,100301.63
2023-04-25T00:41:01.010Z,100301.50
2023-04-25T00:42:03.805Z,100304.28
2023-04-25T00:43:05.601Z,100297.13
2023-04-25T00:44:09.482Z,100301.75
2023-04-25T00:45:15.184Z,100302.59
2023-04-25T00:46:16.694Z,100306.16
2023-04-25T00:47:18.908Z,100303.38
2023-04-25T00:48:23.450Z,100303.44
2023-04-25T00:49:24.901Z,100303.25
2023-04-25T00:50:26.350Z,100302.16
2023-04-25T00:51:27.928Z,100303.97
2023-04-25T00:52:29.538Z,100297.63
2023-04-25T00:53:32.934Z,100304.81
2023-04-25T00:54:34.435Z,100309.28
2023-04-25T00:55:37.059Z,100301.00
2023-04-25T00:56:39.238Z,100280.44
2023-04-25T00:57:41.670Z,100297.41
2023-04-25T00:58:43.930Z,100293.84
2023-04-25T00:59:47.266Z,100302.88
2023-04-25T01:00:51.037Z,100299.09
2023-04-25T01:01:52.667Z,100298.19
2023-04-25T01:02:54.310Z,100293.56
2023-04-25T01:03:57.095Z,100296.44
2023-04-25T01:04:58.699Z,100293.78
2023-04-25T01:06:00.395Z,100289.13
2023-04-25T01:07:03.711Z,100286.59
2023-04-25T01:08:05.509Z,100293.72
2023-04-25T01:09:06.988Z,100286.47
2023-04-25T01:10:09.241Z,100280.13
2023-04-25T01:11:10.656Z,100286.56
2023-04-25T01:12:12.626Z,100285.75
2023-04-25T01:13:14.187Z,100279.31
2023-04-25T01:14:15.858Z,100281.03
2023-04-25T01:15:17.326Z,100283.75
2023-04-25T01:16:18.878Z,100292.75
2023-04-25T01:17:20.662Z,100290.03
2023-04-25T01:18:22.565Z,100277.47
2023-04-25T01:19:25.106Z,100278.22
2023-04-25T01:20:29.237Z,100273.75
2023-04-25T01:21:31.746Z,100288.28
2023-04-25T01:22:33.606Z,100287.47
2023-04-25T01:23:35.180Z,100292.03
2023-04-25T01:24:36.909Z,100285.66
2023-04-25T01:25:39.365Z,100283.84
2023-04-25T01:26:49.475Z,100283.84
2023-04-25T01:27:50.976Z,100286.47
2023-04-25T01:28:52.968Z,100282.94
2023-04-25T01:29:55.356Z,100288.41
2023-04-25T01:30:57.834Z,100281.06
2023-04-25T01:32:00.347Z,100279.38
2023-04-25T01:33:02.403Z,100286.72
2023-04-25T01:34:03.723Z,100288.41
2023-04-25T01:35:10.165Z,100280.28
2023-04-25T01:36:11.988Z,100282.97
2023-04-25T01:37:13.609Z,100285.75
2023-04-25T01:38:15.274Z,100286.66
2023-04-25T01:39:17.585Z,100289.50
2023-04-25T01:40:21.727Z,100292.22
2023-04-25T01:41:24.419Z,100285.03
2023-04-25T01:42:26.096Z,100281.56
2023-04-25T01:43:27.892Z,100289.63
2023-04-25T01:44:29.487Z,100287.84
2023-04-25T01:45:30.988Z,100280.47
2023-04-25T01:46:35.386Z,100284.00
2023-04-25T01:47:37.061Z,100277.75
2023-04-25T01:48:38.519Z,100278.72
2023-04-25T01:49:39.931Z,100280.63
2023-04-25T01:50:42.482Z,100286.88
2023-04-25T01:51:44.276Z,100274.22
2023-04-25T01:52:46.205Z,100286.91
2023-04-25T01:53:47.761Z,100283.22
2023-04-25T01:54:50.877Z,100285.22
2023-04-25T01:55:52.280Z,100286.09
2023-04-25T01:56:53.770Z,100287.16
2023-04-25T01:57:55.210Z,100287.22
2023-04-25T01:58:56.732Z,100282.53
2023-04-25T02:00:04.641Z,100277.16
2023-04-25T02:01:06.137Z,100282.47
2023-04-25T02:02:07.693Z,100288.78
2023-04-25T02:03:09.595Z,100282.53
2023-04-25T02:04:11.474Z,100288.06
2023-04-25T02:05:12.934Z,100279.94
2023-04-25T02:06:14.386Z,100280.00
2023-04-25T02:07:16.754Z,100284.31
2023-04-25T02:08:18.903Z,100283.59
2023-04-25T02:09:20.950Z,100287.28
2023-04-25T02:10:22.296Z,100284.44
2023-04-25T02:11:23.772Z,100279.91
2023-04-25T02:12:27.188Z,100280.78
2023-04-25T02:13:28.645Z,100281.63
2023-04-25T02:14:30.135Z,100287.88
2023-04-25T02:15:31.724Z,100284.44
2023-04-25T02:16:33.326Z,100289.88
2023-04-25T02:17:34.908Z,100289.88
2023-04-25T02:18:38.386Z,100279.91
2023-04-25T02:19:39.814Z,100283.53
2023-04-25T02:20:41.206Z,100293.53
2023-04-25T02:21:42.613Z,100286.38
2023-04-25T02:22:44.139Z,100289.06
2023-04-25T02:23:49.849Z,100285.34
2023-04-25T02:24:51.645Z,100284.50
2023-04-25T02:25:53.849Z,100290.84
2023-04-25T02:26:56.770Z,100287.16
2023-04-25T02:27:58.220Z,100278.97
2023-04-25T02:28:59.652Z,100282.56
2023-04-25T02:30:01.348Z,100280.00
2023-04-25T02:31:02.837Z,100282.53
2023-04-25T02:32:04.589Z,100287.22
2023-04-25T02:33:06.165Z,100290.09
2023-04-25T02:34:07.655Z,100280.03
2023-04-25T02:35:09.657Z,100288.13
2023-04-25T02:36:11.092Z,100287.31
2023-04-25T02:37:12.576Z,100289.13
2023-04-25T02:38:14.037Z,100281.00
2023-04-25T02:39:15.510Z,100291.91
2023-04-25T02:40:16.956Z,100281.84
2023-04-25T02:41:18.770Z,100280.03
2023-04-25T02:42:20.285Z,100284.63
2023-04-25T02:43:21.798Z,100285.56
2023-04-25T02:44:23.257Z,100282.69
2023-04-25T02:45:24.794Z,100281.84
2023-04-25T02:46:38.360Z,100285.56
2023-04-25T02:47:40.832Z,100283.78
2023-04-25T02:48:42.275Z,100288.06
2023-04-25T02:49:43.761Z,100289.03
2023-04-25T02:50:45.997Z,100276.53
2023-04-25T02:51:47.393Z,100279.16
2023-04-25T02:52:48.814Z,100280.22
2023-04-25T02:53:50.443Z,100278.41
2023-04-25T02:54:52.177Z,100275.75
2023-04-25T02:55:53.854Z,100282.03
2023-04-25T02:56:55.530Z,100276.53
2023-04-25T02:57:57.015Z,100274.69
2023-04-25T02:58:58.416Z,100274.69
2023-04-25T02:59:59.878Z,100280.09
2023-04-25T03:01:01.601Z,100284.63
2023-04-25T03:02:03.116Z,100280.03
2023-04-25T03:03:04.618Z,100283.78
2023-04-25T03:04:06.439Z,100280.22
2023-04-25T03:05:08.195Z,100276.66
2023-04-25T03:06:09.586Z,100273.97
2023-04-25T03:07:11.039Z,100274.84
2023-04-25T03:08:12.439Z,100281.97
2023-04-25T03:09:13.849Z,100276.41
2023-04-25T03:10:15.380Z,100270.16
2023-04-25T03:11:16.806Z,100272.88
2023-04-25T03:12:18.207Z,100275.47
2023-04-25T03:13:19.572Z,100272.81
2023-04-25T03:14:21.027Z,100274.63
2023-04-25T03:15:22.977Z,100279.16
2023-04-25T03:16:24.995Z,100285.56
2023-04-25T03:17:26.362Z,100276.53
2023-04-25T03:18:27.775Z,100269.31
2023-04-25T03:19:29.192Z,100276.59
2023-04-25T03:20:31.099Z,100276.47
2023-04-25T03:21:34.289Z,100277.41
2023-04-25T03:22:35.770Z,100278.34
2023-04-25T03:23:37.176Z,100281.06
2023-04-25T03:24:38.645Z,100277.44
2023-04-25T03:25:40.091Z,100278.34
2023-04-25T03:26:41.547Z,100272.94
2023-04-25T03:27:42.934Z,100270.16
2023-04-25T03:28:44.440Z,100276.47
2023-04-25T03:29:45.838Z,100269.25
2023-04-25T03:30:47.353Z,100273.78
2023-04-25T03:31:48.821Z,100279.25
2023-04-25T03:32:50.379Z,100276.59
2023-04-25T03:33:52.068Z,100272.88
2023-04-25T03:34:53.615Z,100275.59
2023-04-25T03:35:55.174Z,100276.31
2023-04-25T03:36:56.598Z,100276.31
2023-04-25T03:37:57.989Z,100283.44
2023-04-25T03:38:59.381Z,100278.13
2023-04-25T03:40:00.876Z,100278.13
2023-04-25T03:41:02.927Z,100279.94
2023-04-25T03:42:04.277Z,100275.28
2023-04-25T03:43:05.800Z,100279.97
2023-04-25T03:44:07.260Z,100277.31
2023-04-25T03:45:09.090Z,100277.16
2023-04-25T03:46:10.551Z,100278.13
2023-04-25T03:47:12.003Z,100284.50
2023-04-25T03:48:13.524Z,100277.31
2023-04-25T03:49:17.053Z,100280.03
2023-04-25T03:50:20.135Z,100280.84
2023-04-25T03:51:21.577Z,100285.34
2023-04-25T03:52:23.018Z,100287.22
2023-04-25T03:53:24.523Z,100283.59
2023-04-25T03:54:26.177Z,100279.03
2023-04-25T03:55:27.608Z,100289.03
2023-04-25T03:56:29.046Z,100280.91
2023-04-25T03:57:30.533Z,100280.91
2023-04-25T03:58:32.078Z,100287.22
2023-04-25T03:59:33.517Z,100289.91
2023-04-25T04:00:35.197Z,100294.50
2023-04-25T04:01:36.668Z,100298.13
2023-04-25T04:02:38.550Z,100292.63
2023-04-25T04:03:40.400Z,100297.16
2023-04-25T04:04:42.313Z,100288.13
2023-04-25T04:05:43.934Z,100292.66
2023-04-25T04:06:45.557Z,100294.50
2023-04-25T04:07:46.969Z,100303.53
2023-04-25T04:08:48.434Z,100301.56
2023-04-25T04:09:49.902Z,100300.78
2023-04-25T04:10:51.289Z,100305.34
2023-04-25T04:11:52.723Z,100303.66
2023-04-25T04:12:54.119Z,100305.28
2023-04-25T04:13:55.582Z,100303.44
2023-04-25T04:14:56.976Z,100281.97
2023-04-25T04:15:58.900Z,100305.41
2023-04-25T04:17:00.404Z,100305.41
2023-04-25T04:18:03.704Z,100303.66
2023-04-25T04:19:05.389Z,100303.72
2023-04-25T04:20:08.343Z,100312.81
2023-04-25T04:21:09.726Z,100308.34
2023-04-25T04:22:11.446Z,100311.03
2023-04-25T04:23:13.148Z,100308.19
2023-04-25T04:24:15.896Z,100304.78
2023-04-25T04:25:17.288Z,100308.50
2023-04-25T04:26:19.254Z,100316.69
2023-04-25T04:27:20.858Z,100316.63
2023-04-25T04:28:22.938Z,100319.28
2023-04-25T04:29:24.739Z,100312.75
2023-04-25T04:30:26.410Z,100311.00
2023-04-25T04:31:27.818Z,100310.19
2023-04-25T04:32:31.391Z,100317.38
2023-04-25T04:33:32.946Z,100315.50
2023-04-25T04:34:34.765Z,100316.25
2023-04-25T04:35:36.334Z,100324.41
2023-04-25T04:36:37.760Z,100316.19
2023-04-25T04:37:39.189Z,100317.06
2023-04-25T04:38:42.147Z,100305.41
2023-04-25T04:39:43.585Z,100317.09
2023-04-25T04:40:45.091Z,100323.38
2023-04-25T04:41:46.505Z,100317.00
2023-04-25T04:42:48.325Z,100314.22
2023-04-25T04:43:49.939Z,100313.38
2023-04-25T04:44:53.091Z,100311.50
2023-04-25T04:45:57.172Z,100321.41
2023-04-25T04:46:58.872Z,100306.88
2023-04-25T04:48:00.397Z,100314.22
2023-04-25T04:49:01.813Z,100319.63
2023-04-25T04:50:05.005Z,100312.25
2023-04-25T04:51:07.201Z,100321.22
2023-04-25T04:52:08.645Z,100322.00
2023-04-25T04:53:10.108Z,100328.34
2023-04-25T04:54:11.556Z,100321.03
2023-04-25T04:55:13.031Z,100323.78
2023-04-25T04:56:14.505Z,100326.47
2023-04-25T04:57:17.454Z,100316.56
2023-04-25T04:58:19.276Z,100321.94
2023-04-25T04:59:20.749Z,100324.66
2023-04-25T05:00:22.772Z,100321.88
2023-04-25T05:01:24.231Z,100325.38
2023-04-25T05:02:26.097Z,100327.19
2023-04-25T05:03:28.232Z,100320.84
2023-04-25T05:04:29.958Z,100328.03
2023-04-25T05:05:31.583Z,100320.81
2023-04-25T05:06:33.004Z,100315.28
2023-04-25T05:07:34.909Z,100327.91
2023-04-25T05:08:37.222Z,100322.41
2023-04-25T05:09:38.658Z,100326.88
2023-04-25T05:10:40.050Z,100330.44
2023-04-25T05:11:41.526Z,100331.28
2023-04-25T05:12:42.907Z,100323.31
2023-04-25T05:13:44.304Z,100331.28
2023-04-25T05:14:45.733Z,100329.38
2023-04-25T05:15:47.727Z,100328.50
2023-04-25T05:16:49.073Z,100333.13
2023-04-25T05:17:50.643Z,100327.72
2023-04-25T05:18:52.131Z,100334.88
2023-04-25T05:19:53.802Z,100331.06
2023-04-25T05:20:55.231Z,100337.41
2023-04-25T05:21:56.656Z,100329.38
2023-04-25T05:22:58.113Z,100332.19
2023-04-25T05:23:59.671Z,100331.25
2023-04-25T05:25:01.141Z,100339.28
2023-04-25T05:26:02.625Z,100333.91
2023-04-25T05:27:04.164Z,100333.00
2023-04-25T05:28:06.579Z,100329.25
2023-04-25T05:29:08.091Z,100337.53
2023-04-25T05:30:10.569Z,100332.09
2023-04-25T05:31:12.074Z,100335.72
2023-04-25T05:32:13.780Z,100330.28
2023-04-25T05:33:15.599Z,100329.38
2023-04-25T05:34:17.642Z,100342.13
2023-04-25T05:35:19.159Z,100335.84
2023-04-25T05:36:20.725Z,100335.78
2023-04-25T05:37:22.126Z,100334.81
2023-04-25T05:38:23.534Z,100340.19
2023-04-25T05:39:25.058Z,100333.09
2023-04-25T05:40:26.603Z,100339.34
2023-04-25T05:41:27.989Z,100333.84
2023-04-25T05:42:29.401Z,100326.47
2023-04-25T05:43:30.829Z,100325.56
2023-04-25T05:44:32.549Z,100341.94
2023-04-25T05:45:34.110Z,100339.06
2023-04-25T05:46:35.751Z,100341.81
2023-04-25T05:47:37.230Z,100338.09
2023-04-25T05:48:39.051Z,100343.59
2023-04-25T05:49:40.610Z,100335.38
2023-04-25T05:50:45.804Z,100346.13
2023-04-25T05:51:47.220Z,100345.22
2023-04-25T05:52:48.669Z,100351.69
2023-04-25T05:53:50.479Z,100352.78
2023-04-25T05:54:52.237Z,100344.34
2023-04-25T05:55:53.632Z,100346.13
2023-04-25T05:56:55.032Z,100352.53
2023-04-25T05:57:56.426Z,100355.94
2023-04-25T05:58:57.957Z,100342.34
2023-04-25T05:59:59.396Z,100348.75
2023-04-25T06:01:00.854Z,100345.34
2023-04-25T06:02:02.259Z,100350.56
2023-04-25T06:03:04.343Z,100358.66
2023-04-25T06:04:06.193Z,100348.75
2023-04-25T06:05:08.536Z,100354.13
2023-04-25T06:06:10.631Z,100361.31
2023-04-25T06:07:12.200Z,100354.25
2023-04-25T06:08:13.611Z,100355.03
2023-04-25T06:09:15.066Z,100356.84
2023-04-25T06:10:16.515Z,100362.28
2023-04-25T06:11:17.967Z,100360.44
2023-04-25T06:12:19.380Z,100361.38
2023-04-25T06:13:20.809Z,100361.38
2023-04-25T06:14:22.223Z,100366.59
2023-04-25T06:15:28.571Z,100370.22
2023-04-25T06:16:30.562Z,100361.16
2023-04-25T06:17:32.061Z,100363.03
2023-04-25T06:18:33.856Z,100356.75
2023-04-25T06:19:38.625Z,100355.78
2023-04-25T06:20:40.095Z,100362.84
2023-04-25T06:21:44.335Z,100360.19
2023-04-25T06:22:45.749Z,100357.47
2023-04-25T06:23:47.278Z,100362.81
2023-04-25T06:24:48.983Z,100366.59
2023-04-25T06:25:50.523Z,100368.22
2023-04-25T06:26:51.912Z,100353.84
2023-04-25T06:27:53.362Z,100357.38
2023-04-25T06:28:54.807Z,100366.47
2023-04-25T06:29:56.211Z,100356.44
2023-04-25T06:30:57.640Z,100356.44
2023-04-25T06:31:59.061Z,100365.50
2023-04-25T06:33:00.568Z,100366.28
2023-04-25T06:34:02.066Z,100353.72
2023-04-25T06:35:04.255Z,100365.34
2023-04-25T06:36:05.978Z,100365.34
2023-04-25T06:37:07.404Z,100364.50
2023-04-25T06:38:09.910Z,100366.28
2023-04-25T06:39:11.738Z,100368.03
2023-04-25T06:40:13.275Z,100361.66
2023-04-25T06:41:14.844Z,100365.22
2023-04-25T06:42:16.354Z,100365.97
2023-04-25T06:43:17.773Z,100364.00
2023-04-25T06:44:19.223Z,100372.16
2023-04-25T06:45:23.368Z,100364.00
2023-04-25T06:46:24.860Z,100362.22
2023-04-25T06:47:26.336Z,100368.53
2023-04-25T06:48:28.368Z,100368.53
2023-04-25T06:49:29.705Z,100372.38
2023-04-25T06:50:31.210Z,100369.69
2023-04-25T06:51:32.827Z,100365.97
2023-04-25T06:52:34.221Z,100377.00
2023-04-25T06:53:35.615Z,100361.88
2023-04-25T06:54:37.066Z,100370.03
2023-04-25T06:55:39.160Z,100360.84
2023-04-25T06:56:40.632Z,100371.78
2023-04-25T06:57:42.051Z,100373.59
2023-04-25T06:58:43.478Z,100375.59
2023-04-25T06:59:44.886Z,100375.47
2023-04-25T07:00:46.316Z,100369.94
2023-04-25T07:01:47.812Z,100366.13
2023-04-25T07:02:49.714Z,100382.59
2023-04-25T07:03:51.251Z,100366.44
2023-04-25T07:04:53.086Z,100374.41
2023-04-25T07:05:54.564Z,100368.28
2023-04-25T07:06:56.463Z,100370.84
2023-04-25T07:07:58.395Z,100368.25
2023-04-25T07:08:59.859Z,100368.06
2023-04-25T07:10:01.445Z,100371.50
2023-04-25T07:11:02.914Z,100375.03
2023-04-25T07:12:04.708Z,100378.78
2023-04-25T07:13:06.122Z,100371.63
2023-04-25T07:14:07.597Z,100372.47
2023-04-25T07:15:11.020Z,100384.09
2023-04-25T07:16:12.558Z,100378.72
2023-04-25T07:17:14.184Z,100377.81
2023-04-25T07:18:16.310Z,100380.94
2023-04-25T07:19:17.775Z,100381.00
2023-04-25T07:20:19.243Z,100380.94
2023-04-25T07:21:20.889Z,100393.75
2023-04-25T07:22:22.352Z,100388.31
2023-04-25T07:23:23.806Z,100390.16
2023-04-25T07:24:25.292Z,100399.13
2023-04-25T07:25:26.744Z,100401.03
2023-04-25T07:26:28.238Z,100396.50
2023-04-25T07:27:29.674Z,100401.28
2023-04-25T07:28:31.076Z,100398.53
2023-04-25T07:29:32.759Z,100399.41
2023-04-25T07:30:35.748Z,100408.25
2023-04-25T07:31:37.215Z,100406.63
2023-04-25T07:32:39.345Z,100409.56
2023-04-25T07:33:41.196Z,100411.19
2023-04-25T07:34:42.658Z,100408.72
2023-04-25T07:35:44.133Z,100400.81
2023-04-25T07:36:46.069Z,100420.72
2023-04-25T07:37:47.452Z,100411.09
2023-04-25T07:38:49.063Z,100413.81
2023-04-25T07:39:50.809Z,100420.16
2023-04-25T07:40:52.369Z,100416.59
2023-04-25T07:41:55.386Z,100418.34
2023-04-25T07:42:57.110Z,100426.38
2023-04-25T07:43:58.589Z,100421.91
2023-04-25T07:45:01.277Z,100416.47
2023-04-25T07:46:03.739Z,100419.91
2023-04-25T07:47:08.057Z,100432.53
2023-04-25T07:48:09.956Z,100432.47
2023-04-25T07:49:11.527Z,100426.06
2023-04-25T07:50:13.005Z,100421.59
2023-04-25T07:51:14.539Z,100435.06
2023-04-25T07:52:16.074Z,100436.88
2023-04-25T07:53:18.831Z,100438.59
2023-04-25T07:54:20.318Z,100435.91
2023-04-25T07:55:21.962Z,100436.78
2023-04-25T07:56:23.409Z,100436.72
2023-04-25T07:57:25.340Z,100431.28
2023-04-25T07:58:26.746Z,100435.63
2023-04-25T07:59:30.224Z,100436.47
2023-04-25T08:00:32.265Z,100433.69
2023-04-25T08:01:35.144Z,100442.16
2023-04-25T08:02:37.458Z,100439.44
2023-04-25T08:03:39.222Z,100446.50
2023-04-25T08:04:41.133Z,100442.88
2023-04-25T08:05:42.812Z,100443.06
2023-04-25T08:06:44.402Z,100443.91
2023-04-25T08:07:46.012Z,100457.56
2023-04-25T08:08:47.450Z,100443.97
2023-04-25T08:09:48.867Z,100450.91
2023-04-25T08:10:50.361Z,100453.41
2023-04-25T08:11:51.811Z,100449.78
2023-04-25T08:12:53.237Z,100447.81
2023-04-25T08:13:54.714Z,100442.03
2023-04-25T08:14:56.221Z,100441.75
2023-04-25T08:15:57.719Z,100439.97
2023-04-25T08:16:59.178Z,100439.75
2023-04-25T08:18:00.713Z,100438.41
2023-04-25T08:19:02.221Z,100442.69
2023-04-25T08:20:06.645Z,100442.44
2023-04-25T08:21:09.793Z,100448.41
2023-04-25T08:22:11.205Z,100454.81
2023-04-25T08:23:12.593Z,100456.69
2023-04-25T08:24:13.998Z,100458.28
2023-04-25T08:25:15.830Z,100456.94
2023-04-25T08:26:17.265Z,100458.59
2023-04-25T08:27:21.850Z,100459.00
2023-04-25T08:28:23.331Z,100462.66
2023-04-25T08:29:26.680Z,100457.81
2023-04-25T08:30:28.395Z,100458.72
2023-04-25T08:31:29.848Z,100469.69
2023-04-25T08:32:31.314Z,100467.66
2023-04-25T08:33:33.717Z,100474.16
2023-04-25T08:34:35.357Z,100475.69
2023-04-25T08:35:37.028Z,100467.28
2023-04-25T08:36:40.555Z,100466.63
2023-04-25T08:37:42.279Z,100467.72
2023-04-25T08:38:43.720Z,100469.19
2023-04-25T08:39:46.060Z,100459.69
2023-04-25T08:40:51.792Z,100473.38
2023-04-25T08:41:53.863Z,100473.13
2023-04-25T08:42:57.669Z,100474.38
2023-04-25T08:44:01.747Z,100473.16
2023-04-25T08:45:06.896Z,100469.44
2023-04-25T08:46:09.399Z,100475.53
2023-04-25T08:47:10.890Z,100481.06
2023-04-25T08:48:14.745Z,100481.22
2023-04-25T08:49:18.279Z,100471.59
2023-04-25T08:50:22.345Z,100479.31
2023-04-25T08:51:25.859Z,100483.75
2023-04-25T08:52:31.576Z,100484.41
2023-04-25T08:53:36.206Z,100490.34
2023-04-25T08:54:40.369Z,100493.41
2023-04-25T08:55:43.458Z,100480.66
2023-04-25T08:56:48.725Z,100490.78
2023-04-25T08:57:51.367Z,100486.91
2023-04-25T08:58:53.156Z,100486.47
2023-04-25T08:59:55.048Z,100498.13
2023-04-25T09:00:56.585Z,100495.09
2023-04-25T09:01:58.591Z,100489.28
2023-04-25T09:03:00.563Z,100476.47
2023-04-25T09:04:02.393Z,100495.50
2023-04-25T09:05:05.232Z,100502.09
2023-04-25T09:06:06.785Z,100508.34
2023-04-25T09:07:08.173Z,100502.91
2023-04-25T09:08:09.734Z,100516.53
2023-04-25T09:09:11.860Z,100510.44
2023-04-25T09:10:13.284Z,100509.19
2023-04-25T09:11:15.823Z,100506.56
2023-04-25T09:12:20.490Z,100511.72
2023-04-25T09:13:29.373Z,100504.31
2023-04-25T09:14:30.839Z,100513.00
2023-04-25T09:15:33.612Z,100504.97
2023-04-25T09:16:36.588Z,100498.56
2023-04-25T09:17:45.308Z,100508.03
2023-04-25T09:18:49.103Z,100499.41
2023-04-25T09:19:52.001Z,100510.78
2023-04-25T09:21:01.942Z,100504.78
2023-04-25T09:22:05.750Z,100517.38
2023-04-25T09:23:08.111Z,100516.28
2023-04-25T09:24:09.638Z,100499.84
2023-04-25T09:25:12.990Z,100514.31
2023-04-25T09:26:19.914Z,100510.00
2023-04-25T09:27:26.167Z,100510.31
2023-04-25T09:28:30.135Z,100516.00
2023-04-25T09:29:34.033Z,100517.56
2023-04-25T09:30:37.477Z,100511.50
2023-04-25T09:31:39.018Z,100508.44
2023-04-25T09:32:43.281Z,100517.19
2023-04-25T09:33:44.709Z,100517.50
2023-04-25T09:34:51.738Z,100520.94
2023-04-25T09:35:56.562Z,100520.63
2023-04-25T09:37:03.008Z,100522.97
2023-04-25T09:38:12.698Z,100538.47
2023-04-25T09:39:17.189Z,100531.78
2023-04-25T09:40:19.146Z,100531.00
2023-04-25T09:41:25.249Z,100529.94
2023-04-25T09:42:29.726Z,100524.38
2023-04-25T09:43:31.472Z,100519.72
2023-04-25T09:44:32.995Z,100518.09
2023-04-25T09:45:44.158Z,100518.25
2023-04-25T09:46:54.030Z,100512.63
2023-04-25T09:47:58.760Z,100522.88
2023-04-25T09:49:07.700Z,100529.56
2023-04-25T09:50:16.910Z,100522.69
2023-04-25T09:51:18.526Z,100512.53
2023-04-25T09:52:23.879Z,100523.47
2023-04-25T09:53:26.705Z,100529.81
2023-04-25T09:54:28.232Z,100529.97
2023-04-25T09:55:30.035Z,100519.34
2023-04-25T09:56:36.857Z,100540.88
2023-04-25T09:57:40.824Z,100522.47
2023-04-25T09:58:42.676Z,100536.22
2023-04-25T09:59:49.426Z,100535.38
2023-04-25T10:00:52.503Z,100539.09
2023-04-25T10:01:56.226Z,100528.41
2023-04-25T10:02:58.469Z,100531.88
2023-04-25T10:04:02.448Z,100535.13
2023-04-25T10:05:06.894Z,100534.97
2023-04-25T10:06:09.965Z,100538.41
2023-04-25T10:07:12.382Z,100539.06
2023-04-25T10:08:14.688Z,100543.16
2023-04-25T10:09:18.856Z,100544.06
2023-04-25T10:10:20.971Z,100532.84
2023-04-25T10:11:24.381Z,100543.16
2023-04-25T10:12:26.964Z,100536.41
2023-04-25T10:13:30.607Z,100528.84
2023-04-25T10:14:32.868Z,100533.38
2023-04-25T10:15:39.678Z,100539.44
2023-04-25T10:16:42.554Z,100537.38
2023-04-25T10:17:44.606Z,100536.09
2023-04-25T10:18:46.084Z,100544.09
2023-04-25T10:19:48.884Z,100536.69
2023-04-25T10:20:51.174Z,100548.22
2023-04-25T10:22:06.858Z,100540.53
2023-04-25T10:23:16.448Z,100550.41
2023-04-25T10:24:18.734Z,100551.91
2023-04-25T10:25:20.525Z,100548.44
2023-04-25T10:26:22.952Z,100545.75
2023-04-25T10:27:24.630Z,100546.88
2023-04-25T10:28:26.142Z,100556.16
2023-04-25T10:29:27.813Z,100561.84
2023-04-25T10:30:29.250Z,100554.00
2023-04-25T10:31:32.155Z,100560.25
2023-04-25T10:32:34.496Z,100557.72
2023-04-25T10:33:40.849Z,100551.81
2023-04-25T10:34:44.566Z,100562.38
2023-04-25T10:35:46.406Z,100560.56
2023-04-25T10:36:53.159Z,100558.22
2023-04-25T10:38:15.390Z,100552.81
2023-04-25T10:39:23.666Z,100552.56
2023-04-25T10:40:25.454Z,100560.16
2023-04-25T10:41:26.928Z,100550.28
2023-04-25T10:42:29.680Z,100550.94
2023-04-25T10:43:34.965Z,100547.13
2023-04-25T10:44:39.241Z,100560.81
2023-04-25T10:45:53.557Z,100554.75
2023-04-25T10:46:57.779Z,100560.53
2023-04-25T10:47:59.326Z,100560.09
2023-04-25T10:49:02.768Z,100554.50
2023-04-25T10:50:09.202Z,100546.53
2023-04-25T10:51:11.977Z,100556.72
2023-04-25T10:52:16.074Z,100536.63
2023-04-25T10:53:17.755Z,100558.38
2023-04-25T10:54:19.936Z,100551.50
2023-04-25T10:55:21.500Z,100563.03
2023-04-25T10:56:25.847Z,100558.88
2023-04-25T10:57:44.266Z,100539.13
2023-04-25T10:58:47.695Z,100553.59
2023-04-25T10:59:50.783Z,100562.16
2023-04-25T11:00:57.611Z,100548.31
2023-04-25T11:01:59.537Z,100557.66
2023-04-25T11:03:01.883Z,100554.09
2023-04-25T11:04:03.933Z,100561.72
2023-04-25T11:05:05.879Z,100570.88
2023-04-25T11:06:20.049Z,100566.25
2023-04-25T11:07:36.040Z,100567.72
2023-04-25T11:08:51.201Z,100575.84
2023-04-25T11:09:52.948Z,100573.94
2023-04-25T11:10:54.620Z,100579.06
2023-04-25T11:12:00.499Z,100575.72
2023-04-25T11:13:02.238Z,100588.22
2023-04-25T11:14:03.692Z,100580.50
2023-04-25T11:15:07.130Z,100583.00
2023-04-25T11:16:12.638Z,100577.28
2023-04-25T11:17:14.819Z,100577.19
2023-04-25T11:18:20.248Z,100572.69
2023-04-25T11:19:21.803Z,100588.69
2023-04-25T11:20:26.960Z,100582.38
2023-04-25T11:21:28.902Z,100581.50
2023-04-25T11:22:30.871Z,100588.22
2023-04-25T11:23:32.376Z,100594.06
2023-04-25T11:24:35.898Z,100589.47
2023-04-25T11:25:38.775Z,100584.00
2023-04-25T11:26:43.687Z,100592.69
2023-04-25T11:27:52.339Z,100593.06
2023-04-25T11:28:59.271Z,100597.41
2023-04-25T11:30:11.077Z,100596.22
2023-04-25T11:31:12.490Z,100588.97
2023-04-25T11:32:14.143Z,100599.13
2023-04-25T11:33:15.711Z,100601.69
2023-04-25T11:34:20.588Z,100590.69
2023-04-25T11:35:24.011Z,100594.59
2023-04-25T11:36:26.994Z,100610.41
2023-04-25T11:37:29.425Z,100597.22
2023-04-25T11:38:30.975Z,100614.06
2023-04-25T11:39:32.412Z,100616.84
2023-04-25T11:40:34.142Z,100609.88
2023-04-25T11:41:38.067Z,100618.41
2023-04-25T11:42:44.270Z,100617.44
2023-04-25T11:43:45.714Z,100620.16
2023-04-25T11:44:47.276Z,100627.25
2023-04-25T11:45:52.608Z,100621.34
2023-04-25T11:46:54.148Z,100635.91
2023-04-25T11:47:55.717Z,100632.22
2023-04-25T11:48:58.281Z,100620.50
2023-04-25T11:50:04.407Z,100634.72
2023-04-25T11:51:06.016Z,100632.22
2023-04-25T11:52:08.160Z,100634.84
2023-04-25T11:53:09.636Z,100635.59